Aviation Digital Data Service (ADDS)

Output produced by METARs form (1237 UTC 22 March 2019)
found at http://www.aviationweather.gov/metar/data/
 
METAR text: RJSD 221200Z AUTO 28007KT 190V320 9999 FEW038 SCT041 BKN044 05/M05 Q1015
Conditions at: RJSD (SADO AIRPORT , JP) observed 1200 UTC 22 March 2019
Temperature: 5.0°C (41°F)
Dewpoint: -5.0°C (23°F) [RH = 48%]
Pressure (altimeter): 29.97 inches Hg (1015.0 mb)
Winds: from the W (280 degrees) at 8 MPH (7 knots; 3.6 m/s)
Visibility: 6 or more miles (10+ km)
Ceiling: 4400 feet AGL
Clouds: few clouds at 3800 feet AGL
scattered clouds at 4100 feet AGL
broken clouds at 4400 feet AGL
Weather: no significant weather observed at this time

METAR text: RJSD 221100Z AUTO 27005KT 180V330 9999 SCT033 SCT037 BKN038 04/M02 Q1014
Conditions at: RJSD (SADO AIRPORT , JP) observed 1100 UTC 22 March 2019
Temperature: 4.0°C (39°F)
Dewpoint: -2.0°C (28°F) [RH = 65%]
Pressure (altimeter): 29.94 inches Hg (1014.0 mb)
Winds: from the W (270 degrees) at 6 MPH (5 knots; 2.6 m/s)
Visibility: 6 or more miles (10+ km)
Ceiling: 3800 feet AGL
Clouds: scattered clouds at 3300 feet AGL
scattered clouds at 3700 feet AGL
broken clouds at 3800 feet AGL
Weather: no significant weather observed at this time

METAR text: RJSD 221000Z AUTO 27006KT 180V320 9999 FEW039 BKN046 BKN048 05/M02 Q1013
Conditions at: RJSD (SADO AIRPORT , JP) observed 1000 UTC 22 March 2019
Temperature: 5.0°C (41°F)
Dewpoint: -2.0°C (28°F) [RH = 60%]
Pressure (altimeter): 29.91 inches Hg (1013.0 mb)
Winds: from the W (270 degrees) at 7 MPH (6 knots; 3.1 m/s)
Visibility: 6 or more miles (10+ km)
Ceiling: 4600 feet AGL
Clouds: few clouds at 3900 feet AGL
broken clouds at 4600 feet AGL
broken clouds at 4800 feet AGL
Weather: no significant weather observed at this time

METAR text: RJSD 220900Z AUTO 27006KT 190V330 9999 SCT034 SCT036 BKN038 05/M01 Q1013
Conditions at: RJSD (SADO AIRPORT , JP) observed 0900 UTC 22 March 2019
Temperature: 5.0°C (41°F)
Dewpoint: -1.0°C (30°F) [RH = 65%]
Pressure (altimeter): 29.91 inches Hg (1013.0 mb)
Winds: from the W (270 degrees) at 7 MPH (6 knots; 3.1 m/s)
Visibility: 6 or more miles (10+ km)
Ceiling: 3800 feet AGL
Clouds: scattered clouds at 3400 feet AGL
scattered clouds at 3600 feet AGL
broken clouds at 3800 feet AGL
Weather: no significant weather observed at this time

METAR text: RJSD 220800Z AUTO VRB05KT 9999 BKN036 BKN042 OVC050 05/M01 Q1012
Conditions at: RJSD (SADO AIRPORT , JP) observed 0800 UTC 22 March 2019
Temperature: 5.0°C (41°F)
Dewpoint: -1.0°C (30°F) [RH = 65%]
Pressure (altimeter): 29.88 inches Hg (1012.0 mb)
Winds: variable direction winds at 6 MPH (5 knots; 2.6 m/s)
Visibility: 6 or more miles (10+ km)
Ceiling: 3600 feet AGL
Clouds: broken clouds at 3600 feet AGL
broken clouds at 4200 feet AGL
overcast cloud deck at 5000 feet AGL
Weather: no significant weather observed at this time

METAR text: RJSD 220700Z AUTO VRB06KT 9999 BKN034 OVC036 05/M00 Q1011
Conditions at: RJSD (SADO AIRPORT , JP) observed 0700 UTC 22 March 2019
Temperature: 5.0°C (41°F)
Dewpoint: 0.0°C (32°F) [RH = 70%]
Pressure (altimeter): 29.85 inches Hg (1011.0 mb)
Winds: variable direction winds at 7 MPH (6 knots; 3.1 m/s)
Visibility: 6 or more miles (10+ km)
Ceiling: 3400 feet AGL
Clouds: broken clouds at 3400 feet AGL
overcast cloud deck at 3600 feet AGL
Weather: no significant weather observed at this time

METAR text: RJSD 220600Z AUTO 28010KT 9999 BKN032 OVC034 06/M01 Q1011
Conditions at: RJSD (SADO AIRPORT , JP) observed 0600 UTC 22 March 2019
Temperature: 6.0°C (43°F)
Dewpoint: -1.0°C (30°F) [RH = 61%]
Pressure (altimeter): 29.85 inches Hg (1011.0 mb)
Winds: from the W (280 degrees) at 12 MPH (10 knots; 5.1 m/s)
Visibility: 6 or more miles (10+ km)
Ceiling: 3200 feet AGL
Clouds: broken clouds at 3200 feet AGL
overcast cloud deck at 3400 feet AGL
Weather: no significant weather observed at this time

METAR text: RJSD 220500Z AUTO 28010KT 240V310 9999 FEW030 BKN035 BKN041 07/M01 Q1010
Conditions at: RJSD (SADO AIRPORT , JP) observed 0500 UTC 22 March 2019
Temperature: 7.0°C (45°F)
Dewpoint: -1.0°C (30°F) [RH = 57%]
Pressure (altimeter): 29.82 inches Hg (1010.0 mb)
Winds: from the W (280 degrees) at 12 MPH (10 knots; 5.1 m/s)
Visibility: 6 or more miles (10+ km)
Ceiling: 3500 feet AGL
Clouds: few clouds at 3000 feet AGL
broken clouds at 3500 feet AGL
broken clouds at 4100 feet AGL
Weather: no significant weather observed at this time

METAR text: RJSD 220400Z AUTO 28010KT 240V330 9999 FEW031 SCT036 09/01 Q1010
Conditions at: RJSD (SADO AIRPORT , JP) observed 0400 UTC 22 March 2019
Temperature: 9.0°C (48°F)
Dewpoint: 1.0°C (34°F) [RH = 57%]
Pressure (altimeter): 29.82 inches Hg (1010.0 mb)
Winds: from the W (280 degrees) at 12 MPH (10 knots; 5.1 m/s)
Visibility: 6 or more miles (10+ km)
Ceiling: at least 12,000 feet AGL
Clouds: few clouds at 3100 feet AGL
scattered clouds at 3600 feet AGL
Weather: no significant weather observed at this time

METAR text: RJSD 220300Z AUTO 28011KT 250V320 9999 FEW025 OVC031 08/01 Q1010
Conditions at: RJSD (SADO AIRPORT , JP) observed 0300 UTC 22 March 2019
Temperature: 8.0°C (46°F)
Dewpoint: 1.0°C (34°F) [RH = 61%]
Pressure (altimeter): 29.82 inches Hg (1010.0 mb)
Winds: from the W (280 degrees) at 13 MPH (11 knots; 5.7 m/s)
Visibility: 6 or more miles (10+ km)
Ceiling: 3100 feet AGL
Clouds: few clouds at 2500 feet AGL
overcast cloud deck at 3100 feet AGL
Weather: no significant weather observed at this time

METAR text: RJSD 220200Z AUTO 26008G21KT 200V300 9999 OVC029 06/00 Q1010
Conditions at: RJSD (SADO AIRPORT , JP) observed 0200 UTC 22 March 2019
Temperature: 6.0°C (43°F)
Dewpoint: 0.0°C (32°F) [RH = 65%]
Pressure (altimeter): 29.82 inches Hg (1010.0 mb)
Winds: from the W (260 degrees) at 9 MPH (8 knots; 4.1 m/s)
gusting to 24 MPH (21 knots; 10.8 m/s)
Visibility: 6 or more miles (10+ km)
Ceiling: 2900 feet AGL
Clouds: overcast cloud deck at 2900 feet AGL
Weather: no significant weather observed at this time

METAR text: RJSD 220100Z AUTO 28007KT 210V340 9999 SCT029 OVC031 06/01 Q1010
Conditions at: RJSD (SADO AIRPORT , JP) observed 0100 UTC 22 March 2019
Temperature: 6.0°C (43°F)
Dewpoint: 1.0°C (34°F) [RH = 70%]
Pressure (altimeter): 29.82 inches Hg (1010.0 mb)
Winds: from the W (280 degrees) at 8 MPH (7 knots; 3.6 m/s)
Visibility: 6 or more miles (10+ km)
Ceiling: 3100 feet AGL
Clouds: scattered clouds at 2900 feet AGL
overcast cloud deck at 3100 feet AGL
Weather: no significant weather observed at this time

METAR text: RJSD 220000Z AUTO 23008KT 180V300 9999 FEW027 SCT034 BKN041 07/02 Q1009
Conditions at: RJSD (SADO AIRPORT , JP) observed 0000 UTC 22 March 2019
Temperature: 7.0°C (45°F)
Dewpoint: 2.0°C (36°F) [RH = 70%]
Pressure (altimeter): 29.79 inches Hg (1009.0 mb)
Winds: from the SW (230 degrees) at 9 MPH (8 knots; 4.1 m/s)
Visibility: 6 or more miles (10+ km)
Ceiling: 4100 feet AGL
Clouds: few clouds at 2700 feet AGL
scattered clouds at 3400 feet AGL
broken clouds at 4100 feet AGL
Weather: no significant weather observed at this time

METAR text: RJSD 212300Z AUTO 28013G23KT 230V310 9999 NSC 07/03 Q1008
Conditions at: RJSD (SADO AIRPORT , JP) observed 2300 UTC 21 March 2019
Temperature: 7.0°C (45°F)
Dewpoint: 3.0°C (37°F) [RH = 76%]
Pressure (altimeter): 29.76 inches Hg (1008.0 mb)
Winds: from the W (280 degrees) at 15 MPH (13 knots; 6.7 m/s)
gusting to 26 MPH (23 knots; 11.8 m/s)
Visibility: 6 or more miles (10+ km)
Ceiling: at least 12,000 feet AGL
Clouds: sky clear below 12,000 feet AGL
Weather: no significant weather observed at this time

METAR text: RJSD 212200Z AUTO 33006G16KT 280V050 9999 FEW021 BKN070 07/02 Q1007
Conditions at: RJSD (SADO AIRPORT , JP) observed 2200 UTC 21 March 2019
Temperature: 7.0°C (45°F)
Dewpoint: 2.0°C (36°F) [RH = 70%]
Pressure (altimeter): 29.73 inches Hg (1007.0 mb)
Winds: from the NNW (330 degrees) at 7 MPH (6 knots; 3.1 m/s)
gusting to 18 MPH (16 knots; 8.2 m/s)
Visibility: 6 or more miles (10+ km)
Ceiling: 7000 feet AGL
Clouds: few clouds at 2100 feet AGL
broken clouds at 7000 feet AGL
Weather: no significant weather observed at this time

METAR text: RJSD 212100Z AUTO 31012G26KT 260V020 9999 BKN022 OVC050 08/04 Q1006
Conditions at: RJSD (SADO AIRPORT , JP) observed 2100 UTC 21 March 2019
Temperature: 8.0°C (46°F)
Dewpoint: 4.0°C (39°F) [RH = 76%]
Pressure (altimeter): 29.70 inches Hg (1006.0 mb)
Winds: from the NW (310 degrees) at 14 MPH (12 knots; 6.2 m/s)
gusting to 30 MPH (26 knots; 13.4 m/s)
Visibility: 6 or more miles (10+ km)
Ceiling: 2200 feet AGL
Clouds: broken clouds at 2200 feet AGL
overcast cloud deck at 5000 feet AGL
Weather: no significant weather observed at this time

METAR text: RJSD 212000Z AUTO 30008G21KT 230V350 9999 FEW031 OVC060 10/05 Q1005
Conditions at: RJSD (SADO AIRPORT , JP) observed 2000 UTC 21 March 2019
Temperature: 10.0°C (50°F)
Dewpoint: 5.0°C (41°F) [RH = 71%]
Pressure (altimeter): 29.68 inches Hg (1005.0 mb)
Winds: from the WNW (300 degrees) at 9 MPH (8 knots; 4.1 m/s)
gusting to 24 MPH (21 knots; 10.8 m/s)
Visibility: 6 or more miles (10+ km)
Ceiling: 6000 feet AGL
Clouds: few clouds at 3100 feet AGL
overcast cloud deck at 6000 feet AGL
Weather: no significant weather observed at this time

METAR text: RJSD 211900Z AUTO 26006KT 200V360 9999 FEW023 SCT150 BKN190 11/04 Q1004
Conditions at: RJSD (SADO AIRPORT , JP) observed 1900 UTC 21 March 2019
Temperature: 11.0°C (52°F)
Dewpoint: 4.0°C (39°F) [RH = 62%]
Pressure (altimeter): 29.65 inches Hg (1004.0 mb)
Winds: from the W (260 degrees) at 7 MPH (6 knots; 3.1 m/s)
Visibility: 6 or more miles (10+ km)
Ceiling: 19000 feet AGL
Clouds: few clouds at 2300 feet AGL
scattered clouds at 15000 feet AGL
broken clouds at 19000 feet AGL
Weather: no significant weather observed at this time

METAR text: RJSD 211800Z AUTO 27008KT 200V320 9999 BKN022 OVC026 12/08 Q1003
Conditions at: RJSD (SADO AIRPORT , JP) observed 1800 UTC 21 March 2019
Temperature: 12.0°C (54°F)
Dewpoint: 8.0°C (46°F) [RH = 76%]
Pressure (altimeter): 29.62 inches Hg (1003.0 mb)
Winds: from the W (270 degrees) at 9 MPH (8 knots; 4.1 m/s)
Visibility: 6 or more miles (10+ km)
Ceiling: 2200 feet AGL
Clouds: broken clouds at 2200 feet AGL
overcast cloud deck at 2600 feet AGL
Weather: no significant weather observed at this time

METAR text: RJSD 211700Z AUTO VRB04KT 9999 SCT022 BKN026 OVC029 12/09 Q1004
Conditions at: RJSD (SADO AIRPORT , JP) observed 1700 UTC 21 March 2019
Temperature: 12.0°C (54°F)
Dewpoint: 9.0°C (48°F) [RH = 82%]
Pressure (altimeter): 29.65 inches Hg (1004.0 mb)
Winds: variable direction winds at 5 MPH (4 knots; 2.1 m/s)
Visibility: 6 or more miles (10+ km)
Ceiling: 2600 feet AGL
Clouds: scattered clouds at 2200 feet AGL
broken clouds at 2600 feet AGL
overcast cloud deck at 2900 feet AGL
Weather: no significant weather observed at this time

METAR text: RJSD 211600Z AUTO VRB04KT 9999 FEW029 BKN031 BKN039 12/08 Q1004
Conditions at: RJSD (SADO AIRPORT , JP) observed 1600 UTC 21 March 2019
Temperature: 12.0°C (54°F)
Dewpoint: 8.0°C (46°F) [RH = 76%]
Pressure (altimeter): 29.65 inches Hg (1004.0 mb)
Winds: variable direction winds at 5 MPH (4 knots; 2.1 m/s)
Visibility: 6 or more miles (10+ km)
Ceiling: 3100 feet AGL
Clouds: few clouds at 2900 feet AGL
broken clouds at 3100 feet AGL
broken clouds at 3900 feet AGL
Weather: no significant weather observed at this time

METAR text: RJSD 211500Z AUTO 28015G26KT 190V330 9999 BKN039 OVC050 12/06 Q1003
Conditions at: RJSD (SADO AIRPORT , JP) observed 1500 UTC 21 March 2019
Temperature: 12.0°C (54°F)
Dewpoint: 6.0°C (43°F) [RH = 67%]
Pressure (altimeter): 29.62 inches Hg (1003.0 mb)
Winds: from the W (280 degrees) at 17 MPH (15 knots; 7.7 m/s)
gusting to 30 MPH (26 knots; 13.4 m/s)
Visibility: 6 or more miles (10+ km)
Ceiling: 3900 feet AGL
Clouds: broken clouds at 3900 feet AGL
overcast cloud deck at 5000 feet AGL
Weather: no significant weather observed at this time

METAR text: RJSD 211400Z AUTO 26009KT 190V300 9999 FEW048 OVC050 13/06 Q1002
Conditions at: RJSD (SADO AIRPORT , JP) observed 1400 UTC 21 March 2019
Temperature: 13.0°C (55°F)
Dewpoint: 6.0°C (43°F) [RH = 62%]
Pressure (altimeter): 29.59 inches Hg (1002.0 mb)
Winds: from the W (260 degrees) at 10 MPH (9 knots; 4.6 m/s)
Visibility: 6 or more miles (10+ km)
Ceiling: 5000 feet AGL
Clouds: few clouds at 4800 feet AGL
overcast cloud deck at 5000 feet AGL
Weather: no significant weather observed at this time

METAR text: RJSD 211300Z AUTO 28021G36KT 240V320 9999 FEW040 BKN048 BKN060 13/07 Q1001
Conditions at: RJSD (SADO AIRPORT , JP) observed 1300 UTC 21 March 2019
Temperature: 13.0°C (55°F)
Dewpoint: 7.0°C (45°F) [RH = 67%]
Pressure (altimeter): 29.56 inches Hg (1001.0 mb)
Winds: from the W (280 degrees) at 24 MPH (21 knots; 10.8 m/s)
gusting to 41 MPH (36 knots; 18.5 m/s)
Visibility: 6 or more miles (10+ km)
Ceiling: 4800 feet AGL
Clouds: few clouds at 4000 feet AGL
broken clouds at 4800 feet AGL
broken clouds at 6000 feet AGL
Weather: no significant weather observed at this time

METAR text: RJSD 211200Z AUTO 27013G30KT 200V310 9999 FEW040 SCT050 BKN080 14/07 Q1000
Conditions at: RJSD (SADO AIRPORT , JP) observed 1200 UTC 21 March 2019
Temperature: 14.0°C (57°F)
Dewpoint: 7.0°C (45°F) [RH = 63%]
Pressure (altimeter): 29.53 inches Hg (1000.0 mb)
Winds: from the W (270 degrees) at 15 MPH (13 knots; 6.7 m/s)
gusting to 34 MPH (30 knots; 15.4 m/s)
Visibility: 6 or more miles (10+ km)
Ceiling: 8000 feet AGL
Clouds: few clouds at 4000 feet AGL
scattered clouds at 5000 feet AGL
broken clouds at 8000 feet AGL
Weather: no significant weather observed at this time

METAR text: RJSD 211100Z AUTO 26009KT 190V320 9999 FEW031 SCT040 BKN044 14/09 Q1000
Conditions at: RJSD (SADO AIRPORT , JP) observed 1100 UTC 21 March 2019
Temperature: 14.0°C (57°F)
Dewpoint: 9.0°C (48°F) [RH = 72%]
Pressure (altimeter): 29.53 inches Hg (1000.0 mb)
Winds: from the W (260 degrees) at 10 MPH (9 knots; 4.6 m/s)
Visibility: 6 or more miles (10+ km)
Ceiling: 4400 feet AGL
Clouds: few clouds at 3100 feet AGL
scattered clouds at 4000 feet AGL
broken clouds at 4400 feet AGL
Weather: no significant weather observed at this time

METAR text: RJSD 211000Z AUTO 27012G23KT 220V310 9999 SCT027 BKN040 BKN043 15/10 Q1000
Conditions at: RJSD (SADO AIRPORT , JP) observed 1000 UTC 21 March 2019
Temperature: 15.0°C (59°F)
Dewpoint: 10.0°C (50°F) [RH = 72%]
Pressure (altimeter): 29.53 inches Hg (1000.0 mb)
Winds: from the W (270 degrees) at 14 MPH (12 knots; 6.2 m/s)
gusting to 26 MPH (23 knots; 11.8 m/s)
Visibility: 6 or more miles (10+ km)
Ceiling: 4000 feet AGL
Clouds: scattered clouds at 2700 feet AGL
broken clouds at 4000 feet AGL
broken clouds at 4300 feet AGL
Weather: no significant weather observed at this time

METAR text: RJSD 210900Z AUTO 27023G33KT 9999 BKN010 OVC050 15/13 Q0999
Conditions at: RJSD (SADO AIRPORT , JP) observed 0900 UTC 21 March 2019
Temperature: 15.0°C (59°F)
Dewpoint: 13.0°C (55°F) [RH = 88%]
Pressure (altimeter): 29.50 inches Hg (999.0 mb)
Winds: from the W (270 degrees) at 26 MPH (23 knots; 11.8 m/s)
gusting to 38 MPH (33 knots; 17.0 m/s)
Visibility: 6 or more miles (10+ km)
Ceiling: 1000 feet AGL
Clouds: broken clouds at 1000 feet AGL
overcast cloud deck at 5000 feet AGL
Weather: no significant weather observed at this time

METAR text: RJSD 210800Z AUTO VRB07G20KT 9999 BKN044 BKN050 OVC070 16/11 Q0998
Conditions at: RJSD (SADO AIRPORT , JP) observed 0800 UTC 21 March 2019
Temperature: 16.0°C (61°F)
Dewpoint: 11.0°C (52°F) [RH = 72%]
Pressure (altimeter): 29.47 inches Hg (998.0 mb)
Winds: variable direction winds at 8 MPH (7 knots; 3.6 m/s)
gusting to 23 MPH (20 knots; 10.3 m/s)
Visibility: 6 or more miles (10+ km)
Ceiling: 4400 feet AGL
Clouds: broken clouds at 4400 feet AGL
broken clouds at 5000 feet AGL
overcast cloud deck at 7000 feet AGL
Weather: no significant weather observed at this time

METAR text: RJSD 210700Z AUTO 27007KT 210V320 9999 FEW044 BKN047 BKN050 16/11 Q0998
Conditions at: RJSD (SADO AIRPORT , JP) observed 0700 UTC 21 March 2019
Temperature: 16.0°C (61°F)
Dewpoint: 11.0°C (52°F) [RH = 72%]
Pressure (altimeter): 29.47 inches Hg (998.0 mb)
Winds: from the W (270 degrees) at 8 MPH (7 knots; 3.6 m/s)
Visibility: 6 or more miles (10+ km)
Ceiling: 4700 feet AGL
Clouds: few clouds at 4400 feet AGL
broken clouds at 4700 feet AGL
broken clouds at 5000 feet AGL
Weather: no significant weather observed at this time

METAR text: RJSD 210600Z AUTO 27004KT 200V340 9999 FEW010 OVC043 15/11 Q0998
Conditions at: RJSD (SADO AIRPORT , JP) observed 0600 UTC 21 March 2019
Temperature: 15.0°C (59°F)
Dewpoint: 11.0°C (52°F) [RH = 77%]
Pressure (altimeter): 29.47 inches Hg (998.0 mb)
Winds: from the W (270 degrees) at 5 MPH (4 knots; 2.1 m/s)
Visibility: 6 or more miles (10+ km)
Ceiling: 4300 feet AGL
Clouds: few clouds at 1000 feet AGL
overcast cloud deck at 4300 feet AGL
Weather: no significant weather observed at this time

METAR text: RJSD 210500Z AUTO 26003KT 180V350 9999 FEW037 OVC042 13/11 Q0999
Conditions at: RJSD (SADO AIRPORT , JP) observed 0500 UTC 21 March 2019
Temperature: 13.0°C (55°F)
Dewpoint: 11.0°C (52°F) [RH = 88%]
Pressure (altimeter): 29.50 inches Hg (999.0 mb)
Winds: from the W (260 degrees) at 3 MPH (3 knots; 1.5 m/s)
Visibility: 6 or more miles (10+ km)
Ceiling: 4200 feet AGL
Clouds: few clouds at 3700 feet AGL
overcast cloud deck at 4200 feet AGL
Weather: no significant weather observed at this time

METAR text: RJSD 210400Z AUTO VRB02KT 9999 -RA FEW001 BKN031 OVC041 10/10 Q1001
Conditions at: RJSD (SADO AIRPORT , JP) observed 0400 UTC 21 March 2019
Temperature: 10.0°C (50°F)
Dewpoint: 10.0°C (50°F) [RH = 100%]
Pressure (altimeter): 29.56 inches Hg (1001.0 mb)
Winds: variable direction winds at 2 MPH (2 knots; 1.0 m/s)
Visibility: 6 or more miles (10+ km)
Ceiling: 3100 feet AGL
Clouds: few clouds at 100 feet AGL
broken clouds at 3100 feet AGL
overcast cloud deck at 4100 feet AGL
Weather: -RA  (light rain)

METAR text: RJSD 210300Z AUTO 10004KT 060V140 9999 FEW027 SCT032 BKN034 10/10 Q1002
Conditions at: RJSD (SADO AIRPORT , JP) observed 0300 UTC 21 March 2019
Temperature: 10.0°C (50°F)
Dewpoint: 10.0°C (50°F) [RH = 100%]
Pressure (altimeter): 29.59 inches Hg (1002.0 mb)
Winds: from the E (100 degrees) at 5 MPH (4 knots; 2.1 m/s)
Visibility: 6 or more miles (10+ km)
Ceiling: 3400 feet AGL
Clouds: few clouds at 2700 feet AGL
scattered clouds at 3200 feet AGL
broken clouds at 3400 feet AGL
Weather: no significant weather observed at this time

METAR text: RJSD 210200Z AUTO 01003KT 310V070 6000 -RA FEW011 SCT027 BKN029 10/09 Q1003
Conditions at: RJSD (SADO AIRPORT , JP) observed 0200 UTC 21 March 2019
Temperature: 10.0°C (50°F)
Dewpoint: 9.0°C (48°F) [RH = 93%]
Pressure (altimeter): 29.62 inches Hg (1003.0 mb)
Winds: from the N (10 degrees) at 3 MPH (3 knots; 1.5 m/s)
Visibility: 4 miles ( 6 km)
Ceiling: 2900 feet AGL
Clouds: few clouds at 1100 feet AGL
scattered clouds at 2700 feet AGL
broken clouds at 2900 feet AGL
Weather: -RA  (light rain)

METAR text: RJSD 210100Z AUTO VRB02KT 2700 -RA BR FEW015 BKN033 OVC040 10/09 Q1005
Conditions at: RJSD (SADO AIRPORT , JP) observed 0100 UTC 21 March 2019
Temperature: 10.0°C (50°F)
Dewpoint: 9.0°C (48°F) [RH = 93%]
Pressure (altimeter): 29.68 inches Hg (1005.0 mb)
Winds: variable direction winds at 2 MPH (2 knots; 1.0 m/s)
Visibility: 1.68 miles (2.70 km)
Ceiling: 3300 feet AGL
Clouds: few clouds at 1500 feet AGL
broken clouds at 3300 feet AGL
overcast cloud deck at 4000 feet AGL
Weather: -RA BR  (light rain, mist)